KDLS/DLS METAR and TAF weather

Enter ICAO airport designator
Station Type Date Time Source
KDLS METAR 2018/04/21 10:53 UTC NOAA

KDLS 211053Z AUTO 33006KT 10SM FEW065 OVC080 12/00 A3024 RMK AO2 PK WND 31035/0954 SLP238 T01170000


Station Type Date Time Source
KDLS Decoded METAR 2018/04/21 10:53 UTC NOAA

THE DALLES MUNICIPAL AIRPORT , OR, United States (KDLS) 45-37N 121-10W 71M
Apr 21, 2018 - 06:53 AM EDT / 2018.04.21 1053 UTC
Wind: from the NNW (330 degrees) at 7 MPH (6 KT):0
Visibility: 10 mile(s):0
Sky conditions: overcast
Temperature: 53.1 F (11.7 C)
Dew Point: 32.0 F (0.0 C)
Relative Humidity: 44%
Pressure (altimeter): 30.24 in. Hg (1024 hPa)
ob: KDLS 211053Z AUTO 33006KT 10SM FEW065 OVC080 12/00 A3024 RMK AO2 PK WND 31035/0954 SLP238 T01170000
cycle: 11

Station Type Date Time Source
KDLS TAF 2018/04/21 12:34 UTC NOAA

TAF
AMD KDLS 211132Z 2112/2212 33006KT P6SM FEW060 OVC080
FM211600 26020G30KT P6SM FEW080
FM212000 31022G30KT P6SM SCT250
FM220600 30010KT P6SM BKN250


Example: see airport list